sensor_id;sensor_type;location;lat;lon;timestamp;pressure;altitude;pressure_sealevel;temperature;humidity
76126;BME280;65174;48.138;21.002;2024-02-21T00:04:32;64582.16;;;-140.13;100.00
76126;BME280;65174;48.138;21.002;2024-02-21T00:07:38;64582.16;;;-140.13;100.00
76126;BME280;65174;48.138;21.002;2024-02-21T00:10:40;64582.16;;;-140.13;100.00
76126;BME280;65174;48.138;21.002;2024-02-21T00:13:43;64582.16;;;-140.13;100.00
76126;BME280;65174;48.138;21.002;2024-02-21T00:16:45;64582.16;;;-140.13;100.00
76126;BME280;65174;48.138;21.002;2024-02-21T00:19:47;64582.16;;;-140.13;100.00
76126;BME280;65174;48.138;21.002;2024-02-21T00:22:49;64582.16;;;-140.13;100.00
76126;BME280;65174;48.138;21.002;2024-02-21T00:25:51;64582.16;;;-140.13;100.00
76126;BME280;65174;48.138;21.002;2024-02-21T00:28:53;64582.16;;;-140.13;100.00
76126;BME280;65174;48.138;21.002;2024-02-21T00:31:55;64582.16;;;-140.13;100.00
76126;BME280;65174;48.138;21.002;2024-02-21T00:34:57;64582.16;;;-140.13;100.00
76126;BME280;65174;48.138;21.002;2024-02-21T00:37:59;64582.16;;;-140.13;100.00
76126;BME280;65174;48.138;21.002;2024-02-21T00:41:01;64582.16;;;-140.13;100.00
76126;BME280;65174;48.138;21.002;2024-02-21T00:44:03;64582.16;;;-140.13;100.00
76126;BME280;65174;48.138;21.002;2024-02-21T00:47:07;64582.16;;;-140.13;100.00
76126;BME280;65174;48.138;21.002;2024-02-21T00:50:09;64582.16;;;-140.13;100.00
76126;BME280;65174;48.138;21.002;2024-02-21T00:53:11;64582.16;;;-140.13;100.00
76126;BME280;65174;48.138;21.002;2024-02-21T00:56:14;64582.16;;;-140.13;100.00
76126;BME280;65174;48.138;21.002;2024-02-21T00:59:15;64582.16;;;-140.13;100.00
76126;BME280;65174;48.138;21.002;2024-02-21T01:02:18;64582.16;;;-140.13;100.00
76126;BME280;65174;48.138;21.002;2024-02-21T01:05:20;64582.16;;;-140.13;100.00
76126;BME280;65174;48.138;21.002;2024-02-21T01:08:22;64582.16;;;-140.13;100.00
76126;BME280;65174;48.138;21.002;2024-02-21T01:11:24;64582.16;;;-140.13;100.00
76126;BME280;65174;48.138;21.002;2024-02-21T01:14:26;64582.16;;;-140.13;100.00
76126;BME280;65174;48.138;21.002;2024-02-21T01:17:28;64582.16;;;-140.13;100.00
76126;BME280;65174;48.138;21.002;2024-02-21T01:20:30;64582.16;;;-140.13;100.00
76126;BME280;65174;48.138;21.002;2024-02-21T01:23:33;64582.16;;;-140.13;100.00
76126;BME280;65174;48.138;21.002;2024-02-21T01:26:35;64582.16;;;-140.13;100.00
76126;BME280;65174;48.138;21.002;2024-02-21T01:29:37;64582.16;;;-140.13;100.00
76126;BME280;65174;48.138;21.002;2024-02-21T01:32:39;64582.16;;;-140.13;100.00
76126;BME280;65174;48.138;21.002;2024-02-21T01:35:41;64582.16;;;-140.13;100.00
76126;BME280;65174;48.138;21.002;2024-02-21T01:38:43;64582.16;;;-140.13;100.00
76126;BME280;65174;48.138;21.002;2024-02-21T01:41:45;64582.16;;;-140.13;100.00
76126;BME280;65174;48.138;21.002;2024-02-21T01:44:47;64582.16;;;-140.13;100.00
76126;BME280;65174;48.138;21.002;2024-02-21T01:47:49;64582.16;;;-140.13;100.00
76126;BME280;65174;48.138;21.002;2024-02-21T01:50:54;64582.16;;;-140.13;100.00
76126;BME280;65174;48.138;21.002;2024-02-21T01:53:57;64582.16;;;-140.13;100.00
76126;BME280;65174;48.138;21.002;2024-02-21T01:56:59;64582.16;;;-140.13;100.00
76126;BME280;65174;48.138;21.002;2024-02-21T02:00:02;64582.16;;;-140.13;100.00
76126;BME280;65174;48.138;21.002;2024-02-21T02:03:11;64582.16;;;-140.13;100.00
76126;BME280;65174;48.138;21.002;2024-02-21T02:06:20;64582.16;;;-140.13;100.00
76126;BME280;65174;48.138;21.002;2024-02-21T02:09:22;64582.16;;;-140.13;100.00
76126;BME280;65174;48.138;21.002;2024-02-21T02:12:24;64582.16;;;-140.13;100.00
76126;BME280;65174;48.138;21.002;2024-02-21T02:15:26;64582.16;;;-140.13;100.00
76126;BME280;65174;48.138;21.002;2024-02-21T02:18:28;64582.16;;;-140.13;100.00
76126;BME280;65174;48.138;21.002;2024-02-21T02:21:34;64582.16;;;-140.13;100.00
76126;BME280;65174;48.138;21.002;2024-02-21T02:24:40;64582.16;;;-140.13;100.00
76126;BME280;65174;48.138;21.002;2024-02-21T02:27:42;64582.16;;;-140.13;100.00
76126;BME280;65174;48.138;21.002;2024-02-21T02:30:46;64582.16;;;-140.13;100.00
76126;BME280;65174;48.138;21.002;2024-02-21T02:33:48;64582.16;;;-140.13;100.00
76126;BME280;65174;48.138;21.002;2024-02-21T02:36:51;64582.16;;;-140.13;100.00
76126;BME280;65174;48.138;21.002;2024-02-21T02:39:53;64582.16;;;-140.13;100.00
76126;BME280;65174;48.138;21.002;2024-02-21T02:42:54;64582.16;;;-140.13;100.00
76126;BME280;65174;48.138;21.002;2024-02-21T02:45:57;64582.16;;;-140.13;100.00
76126;BME280;65174;48.138;21.002;2024-02-21T02:48:59;64582.16;;;-140.13;100.00
76126;BME280;65174;48.138;21.002;2024-02-21T02:52:01;64582.16;;;-140.13;100.00
76126;BME280;65174;48.138;21.002;2024-02-21T02:55:04;64582.16;;;-140.13;100.00
76126;BME280;65174;48.138;21.002;2024-02-21T02:58:06;64582.16;;;-140.13;100.00
76126;BME280;65174;48.138;21.002;2024-02-21T03:01:08;64582.16;;;-140.13;100.00
76126;BME280;65174;48.138;21.002;2024-02-21T03:04:10;64582.16;;;-140.13;100.00
76126;BME280;65174;48.138;21.002;2024-02-21T03:07:14;64582.16;;;-140.13;100.00
76126;BME280;65174;48.138;21.002;2024-02-21T03:10:16;64582.16;;;-140.13;100.00
76126;BME280;65174;48.138;21.002;2024-02-21T03:13:20;64582.16;;;-140.13;100.00
76126;BME280;65174;48.138;21.002;2024-02-21T03:16:22;64582.16;;;-140.13;100.00
76126;BME280;65174;48.138;21.002;2024-02-21T03:19:24;64582.16;;;-140.13;100.00
76126;BME280;65174;48.138;21.002;2024-02-21T03:22:26;64582.16;;;-140.13;100.00
76126;BME280;65174;48.138;21.002;2024-02-21T03:25:29;64582.16;;;-140.13;100.00
76126;BME280;65174;48.138;21.002;2024-02-21T03:28:31;64582.16;;;-140.13;100.00
76126;BME280;65174;48.138;21.002;2024-02-21T03:31:33;64582.16;;;-140.13;100.00
76126;BME280;65174;48.138;21.002;2024-02-21T03:34:35;64582.16;;;-140.13;100.00
76126;BME280;65174;48.138;21.002;2024-02-21T03:37:37;64582.16;;;-140.13;100.00
76126;BME280;65174;48.138;21.002;2024-02-21T03:40:39;64582.16;;;-140.13;100.00
76126;BME280;65174;48.138;21.002;2024-02-21T03:43:41;64582.16;;;-140.13;100.00
76126;BME280;65174;48.138;21.002;2024-02-21T03:46:43;64582.16;;;-140.13;100.00
76126;BME280;65174;48.138;21.002;2024-02-21T03:49:45;64582.16;;;-140.13;100.00
76126;BME280;65174;48.138;21.002;2024-02-21T03:52:47;64582.16;;;-140.13;100.00
76126;BME280;65174;48.138;21.002;2024-02-21T03:55:49;64582.16;;;-140.13;100.00
76126;BME280;65174;48.138;21.002;2024-02-21T03:58:51;64582.16;;;-140.13;100.00
76126;BME280;65174;48.138;21.002;2024-02-21T04:01:53;64582.16;;;-140.13;100.00
76126;BME280;65174;48.138;21.002;2024-02-21T04:04:56;64582.16;;;-140.13;100.00
76126;BME280;65174;48.138;21.002;2024-02-21T04:07:58;64582.16;;;-140.13;100.00
76126;BME280;65174;48.138;21.002;2024-02-21T04:11:00;64582.16;;;-140.13;100.00
76126;BME280;65174;48.138;21.002;2024-02-21T04:14:02;64582.16;;;-140.13;100.00
76126;BME280;65174;48.138;21.002;2024-02-21T04:17:05;64582.16;;;-140.13;100.00
76126;BME280;65174;48.138;21.002;2024-02-21T04:20:14;64582.16;;;-140.13;100.00
76126;BME280;65174;48.138;21.002;2024-02-21T04:23:16;64582.16;;;-140.13;100.00
76126;BME280;65174;48.138;21.002;2024-02-21T04:26:18;64582.16;;;-140.13;100.00
76126;BME280;65174;48.138;21.002;2024-02-21T04:29:20;64582.16;;;-140.13;100.00
76126;BME280;65174;48.138;21.002;2024-02-21T04:32:22;64582.16;;;-140.13;100.00
76126;BME280;65174;48.138;21.002;2024-02-21T04:35:24;64582.16;;;-140.13;100.00
76126;BME280;65174;48.138;21.002;2024-02-21T04:38:26;64582.16;;;-140.13;100.00
76126;BME280;65174;48.138;21.002;2024-02-21T04:41:28;64582.16;;;-140.13;100.00
76126;BME280;65174;48.138;21.002;2024-02-21T04:44:30;64582.16;;;-140.13;100.00
76126;BME280;65174;48.138;21.002;2024-02-21T04:47:32;64582.16;;;-140.13;100.00
76126;BME280;65174;48.138;21.002;2024-02-21T04:50:34;64582.16;;;-140.13;100.00
76126;BME280;65174;48.138;21.002;2024-02-21T04:53:36;64582.16;;;-140.13;100.00
76126;BME280;65174;48.138;21.002;2024-02-21T04:56:38;64582.16;;;-140.13;100.00
76126;BME280;65174;48.138;21.002;2024-02-21T04:59:40;64582.16;;;-140.13;100.00
76126;BME280;65174;48.138;21.002;2024-02-21T05:02:42;64582.16;;;-140.13;100.00
76126;BME280;65174;48.138;21.002;2024-02-21T05:05:44;64582.16;;;-140.13;100.00
76126;BME280;65174;48.138;21.002;2024-02-21T05:08:46;64582.16;;;-140.13;100.00
76126;BME280;65174;48.138;21.002;2024-02-21T05:11:49;64582.16;;;-140.13;100.00
76126;BME280;65174;48.138;21.002;2024-02-21T05:14:51;64582.16;;;-140.13;100.00
76126;BME280;65174;48.138;21.002;2024-02-21T05:17:53;64582.16;;;-140.13;100.00
76126;BME280;65174;48.138;21.002;2024-02-21T05:20:55;64582.16;;;-140.13;100.00
76126;BME280;65174;48.138;21.002;2024-02-21T05:23:57;64582.16;;;-140.13;100.00
76126;BME280;65174;48.138;21.002;2024-02-21T05:26:59;64582.16;;;-140.13;100.00
76126;BME280;65174;48.138;21.002;2024-02-21T05:30:01;64582.16;;;-140.13;100.00
76126;BME280;65174;48.138;21.002;2024-02-21T05:33:06;64582.16;;;-140.13;100.00
76126;BME280;65174;48.138;21.002;2024-02-21T05:36:08;64582.16;;;-140.13;100.00
76126;BME280;65174;48.138;21.002;2024-02-21T05:39:10;64582.16;;;-140.13;100.00
76126;BME280;65174;48.138;21.002;2024-02-21T05:42:12;64582.16;;;-140.13;100.00
76126;BME280;65174;48.138;21.002;2024-02-21T05:45:14;64582.16;;;-140.13;100.00
76126;BME280;65174;48.138;21.002;2024-02-21T05:48:17;64582.16;;;-140.13;100.00
76126;BME280;65174;48.138;21.002;2024-02-21T05:51:19;64582.16;;;-140.13;100.00
76126;BME280;65174;48.138;21.002;2024-02-21T05:54:21;64582.16;;;-140.13;100.00
76126;BME280;65174;48.138;21.002;2024-02-21T05:57:23;64582.16;;;-140.13;100.00
76126;BME280;65174;48.138;21.002;2024-02-21T06:00:25;64582.16;;;-140.13;100.00
76126;BME280;65174;48.138;21.002;2024-02-21T06:03:28;64582.16;;;-140.13;100.00
76126;BME280;65174;48.138;21.002;2024-02-21T06:06:30;64582.16;;;-140.13;100.00
76126;BME280;65174;48.138;21.002;2024-02-21T06:09:32;64582.16;;;-140.13;100.00
76126;BME280;65174;48.138;21.002;2024-02-21T06:12:34;64582.16;;;-140.13;100.00
76126;BME280;65174;48.138;21.002;2024-02-21T06:36:01;100063.03;;;5.17;100.00
76126;BME280;65174;48.138;21.002;2024-02-21T06:39:04;100082.38;;;5.24;100.00
76126;BME280;65174;48.138;21.002;2024-02-21T06:42:09;100084.28;;;5.19;100.00
76126;BME280;65174;48.138;21.002;2024-02-21T06:45:11;100096.13;;;5.21;100.00
76126;BME280;65174;48.138;21.002;2024-02-21T06:48:13;100101.06;;;5.27;100.00
76126;BME280;65174;48.138;21.002;2024-02-21T06:51:15;100101.06;;;5.27;100.00
76126;BME280;65174;48.138;21.002;2024-02-21T06:54:17;100104.28;;;5.32;100.00
76126;BME280;65174;48.138;21.002;2024-02-21T06:57:19;100108.47;;;5.35;100.00
76126;BME280;65174;48.138;21.002;2024-02-21T07:00:22;100104.72;;;5.45;100.00
76126;BME280;65174;48.138;21.002;2024-02-21T07:03:26;100101.88;;;5.54;100.00
76126;BME280;65174;48.138;21.002;2024-02-21T07:06:30;100103.25;;;5.38;100.00
76126;BME280;65174;48.138;21.002;2024-02-21T07:09:36;100103.25;;;5.38;100.00
76126;BME280;65174;48.138;21.002;2024-02-21T07:12:38;100100.81;;;5.59;100.00
76126;BME280;65174;48.138;21.002;2024-02-21T07:15:43;100100.81;;;5.59;100.00
76126;BME280;65174;48.138;21.002;2024-02-21T07:18:45;100100.81;;;5.59;100.00
76126;BME280;65174;48.138;21.002;2024-02-21T07:21:47;100100.81;;;5.59;100.00
76126;BME280;65174;48.138;21.002;2024-02-21T07:24:49;100100.81;;;5.59;100.00
76126;BME280;65174;48.138;21.002;2024-02-21T07:27:51;100100.81;;;5.59;100.00
76126;BME280;65174;48.138;21.002;2024-02-21T07:30:53;100075.78;;;5.94;100.00
76126;BME280;65174;48.138;21.002;2024-02-21T07:33:55;100066.72;;;6.08;100.00
76126;BME280;65174;48.138;21.002;2024-02-21T07:36:57;100066.72;;;6.08;100.00
76126;BME280;65174;48.138;21.002;2024-02-21T07:39:59;100060.34;;;6.20;100.00
76126;BME280;65174;48.138;21.002;2024-02-21T07:43:01;100055.22;;;6.20;100.00
76126;BME280;65174;48.138;21.002;2024-02-21T07:46:04;100061.53;;;6.33;100.00
76126;BME280;65174;48.138;21.002;2024-02-21T07:49:06;100063.59;;;6.47;100.00
76126;BME280;65174;48.138;21.002;2024-02-21T07:52:09;100063.75;;;6.42;100.00
76126;BME280;65174;48.138;21.002;2024-02-21T07:55:11;100065.50;;;6.41;100.00
76126;BME280;65174;48.138;21.002;2024-02-21T07:58:13;100067.78;;;6.49;100.00
76126;BME280;65174;48.138;21.002;2024-02-21T08:01:19;100060.06;;;6.72;100.00
76126;BME280;65174;48.138;21.002;2024-02-21T08:04:23;100065.28;;;6.69;100.00
76126;BME280;65174;48.138;21.002;2024-02-21T08:07:25;100067.69;;;6.74;100.00
76126;BME280;65174;48.138;21.002;2024-02-21T08:10:27;100062.78;;;6.89;100.00
76126;BME280;65174;48.138;21.002;2024-02-21T08:13:29;100061.94;;;7.10;100.00
76126;BME280;65174;48.138;21.002;2024-02-21T08:16:31;100066.13;;;6.91;100.00
76126;BME280;65174;48.138;21.002;2024-02-21T08:19:33;100055.50;;;7.00;100.00
76126;BME280;65174;48.138;21.002;2024-02-21T08:22:37;100058.91;;;7.01;100.00
76126;BME280;65174;48.138;21.002;2024-02-21T08:25:40;100048.81;;;7.18;100.00
76126;BME280;65174;48.138;21.002;2024-02-21T08:28:42;100042.22;;;7.33;100.00
76126;BME280;65174;48.138;21.002;2024-02-21T08:31:44;100044.28;;;7.25;100.00
76126;BME280;65174;48.138;21.002;2024-02-21T08:56:11;100051.47;;;7.77;100.00
76126;BME280;65174;48.138;21.002;2024-02-21T08:59:13;100059.03;;;7.80;100.00
76126;BME280;65174;48.138;21.002;2024-02-21T09:02:16;100052.38;;;7.94;100.00
76126;BME280;65174;48.138;21.002;2024-02-21T09:05:19;100056.16;;;8.06;100.00
76126;BME280;65174;48.138;21.002;2024-02-21T09:08:22;100059.06;;;8.17;100.00
76126;BME280;65174;48.138;21.002;2024-02-21T09:11:24;100056.81;;;8.30;100.00
76126;BME280;65174;48.138;21.002;2024-02-21T09:14:26;100059.34;;;8.11;100.00
76126;BME280;65174;48.138;21.002;2024-02-21T09:17:28;100061.75;;;7.77;100.00
76126;BME280;65174;48.138;21.002;2024-02-21T09:20:31;100063.66;;;8.11;100.00
76126;BME280;65174;48.138;21.002;2024-02-21T09:23:33;100062.66;;;8.15;100.00
76126;BME280;65174;48.138;21.002;2024-02-21T09:26:35;100063.19;;;8.21;100.00
76126;BME280;65174;48.138;21.002;2024-02-21T09:29:37;100061.44;;;8.03;100.00
76126;BME280;65174;48.138;21.002;2024-02-21T09:32:41;100060.75;;;8.18;100.00
76126;BME280;65174;48.138;21.002;2024-02-21T09:35:43;100061.22;;;8.46;100.00
76126;BME280;65174;48.138;21.002;2024-02-21T09:38:45;100070.25;;;8.36;100.00
76126;BME280;65174;48.138;21.002;2024-02-21T09:41:53;100067.97;;;8.49;100.00
76126;BME280;65174;48.138;21.002;2024-02-21T09:44:57;100072.53;;;8.61;100.00
76126;BME280;65174;48.138;21.002;2024-02-21T09:51:37;100068.66;;;9.07;100.00
76126;BME280;65174;48.138;21.002;2024-02-21T09:54:42;100069.81;;;9.18;100.00
76126;BME280;65174;48.138;21.002;2024-02-21T09:57:47;100064.34;;;9.24;100.00
76126;BME280;65174;48.138;21.002;2024-02-21T10:00:49;100068.59;;;9.08;100.00
76126;BME280;65174;48.138;21.002;2024-02-21T10:03:51;100074.25;;;8.98;100.00
76126;BME280;65174;48.138;21.002;2024-02-21T10:06:55;100065.53;;;9.00;100.00
76126;BME280;65174;48.138;21.002;2024-02-21T10:10:03;100065.16;;;9.08;100.00
76126;BME280;65174;48.138;21.002;2024-02-21T10:13:06;100057.38;;;8.92;100.00
76126;BME280;65174;48.138;21.002;2024-02-21T10:16:09;100054.72;;;8.94;100.00
76126;BME280;65174;48.138;21.002;2024-02-21T10:19:18;100045.97;;;9.15;100.00
76126;BME280;65174;48.138;21.002;2024-02-21T10:22:21;100038.75;;;9.38;100.00
76126;BME280;65174;48.138;21.002;2024-02-21T10:25:23;100033.16;;;9.13;100.00
76126;BME280;65174;48.138;21.002;2024-02-21T10:28:25;100026.56;;;9.25;100.00
76126;BME280;65174;48.138;21.002;2024-02-21T10:31:28;100017.19;;;9.24;100.00
76126;BME280;65174;48.138;21.002;2024-02-21T10:34:30;100008.78;;;9.03;100.00
76126;BME280;65174;48.138;21.002;2024-02-21T10:37:32;100006.25;;;8.49;100.00
76126;BME280;65174;48.138;21.002;2024-02-21T10:40:34;99996.13;;;8.63;100.00
76126;BME280;65174;48.138;21.002;2024-02-21T10:43:40;99991.06;;;8.97;100.00
76126;BME280;65174;48.138;21.002;2024-02-21T10:46:43;99991.44;;;9.24;100.00
76126;BME280;65174;48.138;21.002;2024-02-21T10:49:50;99993.25;;;9.39;100.00
76126;BME280;65174;48.138;21.002;2024-02-21T10:53:06;99983.13;;;9.02;100.00
76126;BME280;65174;48.138;21.002;2024-02-21T10:59:23;99980.47;;;9.37;100.00
76126;BME280;65174;48.138;21.002;2024-02-21T11:02:26;99976.19;;;9.36;100.00
76126;BME280;65174;48.138;21.002;2024-02-21T11:05:30;99967.97;;;9.30;100.00
76126;BME280;65174;48.138;21.002;2024-02-21T11:08:34;99967.56;;;9.54;100.00
76126;BME280;65174;48.138;21.002;2024-02-21T11:11:40;99968.97;;;9.27;100.00
76126;BME280;65174;48.138;21.002;2024-02-21T11:14:44;99968.78;;;9.13;100.00
76126;BME280;65174;48.138;21.002;2024-02-21T11:17:55;99958.69;;;9.43;100.00
76126;BME280;65174;48.138;21.002;2024-02-21T11:21:02;99952.97;;;9.38;100.00
76126;BME280;65174;48.138;21.002;2024-02-21T11:24:06;99958.16;;;9.53;100.00
76126;BME280;65174;48.138;21.002;2024-02-21T11:27:12;99952.22;;;9.69;100.00
76126;BME280;65174;48.138;21.002;2024-02-21T11:30:14;99948.47;;;9.74;100.00
76126;BME280;65174;48.138;21.002;2024-02-21T11:33:18;99950.16;;;9.75;100.00
76126;BME280;65174;48.138;21.002;2024-02-21T11:36:27;99946.19;;;9.85;100.00
76126;BME280;65174;48.138;21.002;2024-02-21T11:39:30;99945.28;;;9.86;100.00
76126;BME280;65174;48.138;21.002;2024-02-21T11:42:32;99944.75;;;9.80;100.00
76126;BME280;65174;48.138;21.002;2024-02-21T11:45:34;99935.34;;;9.63;100.00
76126;BME280;65174;48.138;21.002;2024-02-21T11:48:36;99924.53;;;9.72;100.00
76126;BME280;65174;48.138;21.002;2024-02-21T11:51:38;99925.00;;;9.80;100.00
76126;BME280;65174;48.138;21.002;2024-02-21T11:54:41;99926.88;;;9.77;100.00
76126;BME280;65174;48.138;21.002;2024-02-21T11:57:43;99924.13;;;9.64;93.43
76126;BME280;65174;48.138;21.002;2024-02-21T12:00:46;99917.56;;;9.74;100.00
76126;BME280;65174;48.138;21.002;2024-02-21T12:03:48;99916.34;;;9.81;100.00
76126;BME280;65174;48.138;21.002;2024-02-21T12:06:54;99907.94;;;9.93;100.00
76126;BME280;65174;48.138;21.002;2024-02-21T12:09:59;99916.25;;;9.83;100.00
76126;BME280;65174;48.138;21.002;2024-02-21T12:13:08;99912.88;;;9.82;100.00
76126;BME280;65174;48.138;21.002;2024-02-21T12:16:10;99912.78;;;9.84;100.00
76126;BME280;65174;48.138;21.002;2024-02-21T12:19:13;99919.75;;;9.82;100.00
76126;BME280;65174;48.138;21.002;2024-02-21T12:22:18;99912.34;;;9.76;100.00
76126;BME280;65174;48.138;21.002;2024-02-21T12:25:22;99919.66;;;9.68;100.00
76126;BME280;65174;48.138;21.002;2024-02-21T12:28:25;99922.84;;;9.55;100.00
76126;BME280;65174;48.138;21.002;2024-02-21T12:31:27;99925.00;;;9.47;100.00
76126;BME280;65174;48.138;21.002;2024-02-21T12:34:29;99913.44;;;9.72;100.00
76126;BME280;65174;48.138;21.002;2024-02-21T12:37:49;99923.50;;;12.78;100.00
76126;BME280;65174;48.138;21.002;2024-02-21T12:40:52;99912.94;;;12.68;100.00
76126;BME280;65174;48.138;21.002;2024-02-21T12:43:54;99915.03;;;12.49;100.00
76126;BME280;65174;48.138;21.002;2024-02-21T12:46:56;99909.06;;;12.88;100.00
76126;BME280;65174;48.138;21.002;2024-02-21T12:49:58;99901.97;;;13.42;100.00
76126;BME280;65174;48.138;21.002;2024-02-21T12:53:00;99898.53;;;13.29;100.00
76126;BME280;65174;48.138;21.002;2024-02-21T12:56:03;99900.25;;;13.03;100.00
76126;BME280;65174;48.138;21.002;2024-02-21T12:59:07;99906.34;;;12.77;100.00
76126;BME280;65174;48.138;21.002;2024-02-21T13:02:11;99897.44;;;12.81;100.00
76126;BME280;65174;48.138;21.002;2024-02-21T13:05:13;99896.28;;;12.33;97.29
76126;BME280;65174;48.138;21.002;2024-02-21T13:08:15;99887.75;;;12.58;100.00
76126;BME280;65174;48.138;21.002;2024-02-21T13:11:17;99884.91;;;12.88;100.00
76126;BME280;65174;48.138;21.002;2024-02-21T13:14:19;99881.22;;;13.29;100.00
76126;BME280;65174;48.138;21.002;2024-02-21T13:17:22;99871.16;;;13.50;88.73
76126;BME280;65174;48.138;21.002;2024-02-21T13:20:27;99867.59;;;13.01;95.00
76126;BME280;65174;48.138;21.002;2024-02-21T13:23:31;99865.44;;;13.57;95.58
76126;BME280;65174;48.138;21.002;2024-02-21T13:26:33;99859.47;;;13.07;79.56
76126;BME280;65174;48.138;21.002;2024-02-21T13:29:35;99852.16;;;13.62;98.41
76126;BME280;65174;48.138;21.002;2024-02-21T13:32:37;99854.47;;;13.41;100.00
76126;BME280;65174;48.138;21.002;2024-02-21T13:35:39;99863.38;;;12.87;92.94
76126;BME280;65174;48.138;21.002;2024-02-21T13:38:41;99865.88;;;12.49;95.82
76126;BME280;65174;48.138;21.002;2024-02-21T13:41:43;99864.13;;;12.23;99.44
76126;BME280;65174;48.138;21.002;2024-02-21T13:44:46;99859.84;;;11.69;100.00
76126;BME280;65174;48.138;21.002;2024-02-21T13:47:48;99851.72;;;11.04;100.00
76126;BME280;65174;48.138;21.002;2024-02-21T13:50:53;99847.66;;;10.43;100.00
76126;BME280;65174;48.138;21.002;2024-02-21T13:54:00;99848.31;;;9.99;100.00
76126;BME280;65174;48.138;21.002;2024-02-21T13:57:11;99848.59;;;9.79;100.00
76126;BME280;65174;48.138;21.002;2024-02-21T14:00:23;99842.69;;;9.46;100.00
76126;BME280;65174;48.138;21.002;2024-02-21T14:03:34;99845.25;;;9.46;100.00
76126;BME280;65174;48.138;21.002;2024-02-21T14:06:44;99832.72;;;9.40;100.00
76126;BME280;65174;48.138;21.002;2024-02-21T14:10:06;99842.50;;;9.33;100.00
76126;BME280;65174;48.138;21.002;2024-02-21T14:13:29;99842.31;;;9.36;100.00
76126;BME280;65174;48.138;21.002;2024-02-21T14:16:51;99836.00;;;9.26;100.00
76126;BME280;65174;48.138;21.002;2024-02-21T14:20:00;99840.56;;;9.21;100.00
76126;BME280;65174;48.138;21.002;2024-02-21T14:23:03;99841.19;;;9.42;100.00
76126;BME280;65174;48.138;21.002;2024-02-21T14:26:06;99849.47;;;9.47;100.00
76126;BME280;65174;48.138;21.002;2024-02-21T14:29:11;99844.84;;;9.38;100.00
76126;BME280;65174;48.138;21.002;2024-02-21T14:32:21;99831.53;;;9.30;100.00
76126;BME280;65174;48.138;21.002;2024-02-21T14:35:31;99840.16;;;9.29;100.00
76126;BME280;65174;48.138;21.002;2024-02-21T14:55:14;99836.16;;;8.73;100.00
76126;BME280;65174;48.138;21.002;2024-02-21T14:58:17;99841.69;;;8.49;100.00
76126;BME280;65174;48.138;21.002;2024-02-21T15:01:21;99845.84;;;8.34;100.00
76126;BME280;65174;48.138;21.002;2024-02-21T15:04:23;99837.88;;;8.22;100.00
76126;BME280;65174;48.138;21.002;2024-02-21T15:07:25;99848.94;;;8.05;100.00
76126;BME280;65174;48.138;21.002;2024-02-21T15:10:28;99849.31;;;7.97;100.00
76126;BME280;65174;48.138;21.002;2024-02-21T15:13:30;99849.09;;;7.83;100.00
76126;BME280;65174;48.138;21.002;2024-02-21T15:16:32;99846.81;;;7.77;100.00
76126;BME280;65174;48.138;21.002;2024-02-21T15:19:35;99837.81;;;7.69;100.00
76126;BME280;65174;48.138;21.002;2024-02-21T15:22:41;99843.69;;;7.71;100.00
76126;BME280;65174;48.138;21.002;2024-02-21T15:25:43;99836.78;;;7.73;100.00
76126;BME280;65174;48.138;21.002;2024-02-21T15:28:45;99829.28;;;7.68;100.00
76126;BME280;65174;48.138;21.002;2024-02-21T15:31:48;99836.34;;;7.63;100.00
76126;BME280;65174;48.138;21.002;2024-02-21T15:34:50;99829.81;;;7.56;100.00
76126;BME280;65174;48.138;21.002;2024-02-21T15:37:53;99841.91;;;7.54;100.00
76126;BME280;65174;48.138;21.002;2024-02-21T15:40:55;99836.00;;;7.52;100.00
76126;BME280;65174;48.138;21.002;2024-02-21T15:43:57;99831.09;;;7.48;100.00
76126;BME280;65174;48.138;21.002;2024-02-21T15:47:01;99837.97;;;7.47;100.00
76126;BME280;65174;48.138;21.002;2024-02-21T15:50:06;99839.63;;;7.48;100.00
76126;BME280;65174;48.138;21.002;2024-02-21T15:53:09;99831.63;;;7.54;100.00
76126;BME280;65174;48.138;21.002;2024-02-21T15:56:12;99831.22;;;7.63;100.00
76126;BME280;65174;48.138;21.002;2024-02-21T15:59:15;99830.66;;;7.57;100.00
76126;BME280;65174;48.138;21.002;2024-02-21T16:02:17;99822.75;;;7.61;100.00
76126;BME280;65174;48.138;21.002;2024-02-21T16:05:20;99829.31;;;7.50;100.00
76126;BME280;65174;48.138;21.002;2024-02-21T16:08:22;99823.66;;;7.42;100.00
76126;BME280;65174;48.138;21.002;2024-02-21T16:11:25;99828.00;;;7.21;100.00
76126;BME280;65174;48.138;21.002;2024-02-21T16:14:27;99825.22;;;7.07;100.00
76126;BME280;65174;48.138;21.002;2024-02-21T16:17:29;99831.38;;;7.03;100.00
76126;BME280;65174;48.138;21.002;2024-02-21T16:20:31;99835.94;;;6.96;100.00
76126;BME280;65174;48.138;21.002;2024-02-21T16:23:34;99839.28;;;6.98;100.00
76126;BME280;65174;48.138;21.002;2024-02-21T16:26:37;99834.22;;;6.97;100.00
76126;BME280;65174;48.138;21.002;2024-02-21T16:29:39;99831.97;;;6.89;100.00
76126;BME280;65174;48.138;21.002;2024-02-21T16:32:42;99830.63;;;6.81;100.00
76126;BME280;65174;48.138;21.002;2024-02-21T16:35:45;99826.59;;;6.75;100.00
76126;BME280;65174;48.138;21.002;2024-02-21T16:38:49;64582.16;;;6.72;100.00
76126;BME280;65174;48.138;21.002;2024-02-21T16:41:51;64582.16;;;-140.13;100.00
76126;BME280;65174;48.138;21.002;2024-02-21T16:45:00;64582.16;;;-140.13;100.00
76126;BME280;65174;48.138;21.002;2024-02-21T16:48:03;64582.16;;;-140.13;100.00